METAR Data
IDs: Format: Raw Decoded Include TAF

Data at: 0055 UTC 01 Mar 2021

KSGS 010035Z AUTO 28009G15KT 10SM CLR M03/M10 A2999 RMK AO2 T10351105